Detall de PIREP

Printer-friendly versionPDF version

[2017/08/20 04:40:00]
Flight IATA:CT0001
Pilot Number:041
Company ICAO:CAT
Aircraft Type:B463/A
PAX:100
Aircraft Registration:PAX
Departing Airport: LEMH
Destination Airport: LEVC
Alternate Airport:LEBL
Online: VATSIM
Route:EPAMA A33 ARGOR
Flight Level:FL230
No Slew and time accel
No pause
Crash detect
Detect pilot in Cockpit between each 30 and 45 minutes
04:40 Zero fuel Weight: 81535 Lbs, Fuel Weight: 17766 Lbs
04:40 VATSIM:LEMH 200400Z 03018KT CAVOK 23/12 Q1019
04:40 VATSIM:LEVC 200400Z 33005KT CAVOK 24/21 Q1019 NOSIG
04:40 VOICE CATALONIAN
04:46 Parking Brakes off
04:56 Take-off
04:56 Take off Weight: 98705 Lbs
04:56 Wind: 217º @ 007 Knots Heading: 007º
04:56 POS N39º 52´ 04´´ E004º 13´ 10´´
04:56 Gear Up: 181 Knots
04:56 Flaps:1 at 182 Knots
04:56 Flaps:0 at 217 Knots
05:08 TOC
05:08 Fuel Weight: 15442 Lb
05:11 Wind:270º@037 Knots Heading: 283º Ground Speed: 350 Knots Altitude 22952 ft
05:26 Wind:276º@036 Knots Heading: 278º Ground Speed: 338 Knots Altitude 22956 ft
05:27 TOD
05:27 Fuel Weight: 13874 Lb
05:37 Flaps:1 at 216 Knots
05:41 Wind:307º@002 Knots Heading: 250º Ground Speed: 190 Knots Altitude 3497 ft
05:45 Flaps:2 at 158 Knots
05:45 Gear Down: 151 Knots
05:45 Flaps:3 at 153 Knots
05:46 Flaps:4 at 144 Knots
05:48 TouchDown:Rate -173 ft/min Speed: 125 Knots
05:49 VATSIM:LEVC 200530Z 33004KT 9999 FEW030 23/21 Q1020 NOSIG
05:49 Land
05:49 Wind:073º@009 Knots
05:49 Heading: 294º
05:49 Flight Duration: 00:53
05:49 Landing Weight: 94380 Lbs
05:49 POS N39º 29´ 23´´ W000º 28´ 58´´
05:53 Parking brakes on
05:53 Block to Block Duration: 01:07
05:53 Final Fuel: 12676 Lbls
05:53 Spent Fuel: 5090 Lbls
05:53 Flight Length: 250 NM
05:53 TOD Land Length: 84 NM

Exportar CSV

Powered by Drupal - Modified by Danger4k